sensor_id;sensor_type;location;lat;lon;timestamp;temperature;humidity
5576;DHT22;2810;50.134;8.626;2022-12-07T00:01:09;4.30;99.90
5576;DHT22;2810;50.134;8.626;2022-12-07T00:03:35;4.30;99.90
5576;DHT22;2810;50.134;8.626;2022-12-07T00:06:01;4.30;99.90
5576;DHT22;2810;50.134;8.626;2022-12-07T00:08:26;4.30;99.90
5576;DHT22;2810;50.134;8.626;2022-12-07T00:10:52;4.30;99.90
5576;DHT22;2810;50.134;8.626;2022-12-07T00:13:17;4.30;99.90
5576;DHT22;2810;50.134;8.626;2022-12-07T00:15:43;4.30;99.90
5576;DHT22;2810;50.134;8.626;2022-12-07T00:18:09;4.20;99.90
5576;DHT22;2810;50.134;8.626;2022-12-07T00:20:34;4.20;99.90
5576;DHT22;2810;50.134;8.626;2022-12-07T00:23:00;4.20;99.90
5576;DHT22;2810;50.134;8.626;2022-12-07T00:25:25;4.20;99.90
5576;DHT22;2810;50.134;8.626;2022-12-07T00:27:53;4.20;99.90
5576;DHT22;2810;50.134;8.626;2022-12-07T00:30:22;4.20;99.90
5576;DHT22;2810;50.134;8.626;2022-12-07T00:32:47;4.20;99.90
5576;DHT22;2810;50.134;8.626;2022-12-07T00:35:13;4.20;99.90
5576;DHT22;2810;50.134;8.626;2022-12-07T00:37:38;4.20;99.90
5576;DHT22;2810;50.134;8.626;2022-12-07T00:40:04;4.20;99.90
5576;DHT22;2810;50.134;8.626;2022-12-07T00:42:29;4.30;99.90
5576;DHT22;2810;50.134;8.626;2022-12-07T00:44:55;4.20;99.90
5576;DHT22;2810;50.134;8.626;2022-12-07T00:47:20;4.10;99.90
5576;DHT22;2810;50.134;8.626;2022-12-07T00:49:46;4.20;99.90
5576;DHT22;2810;50.134;8.626;2022-12-07T00:52:11;4.20;99.90
5576;DHT22;2810;50.134;8.626;2022-12-07T00:54:37;4.00;99.90
5576;DHT22;2810;50.134;8.626;2022-12-07T00:57:02;4.10;99.90
5576;DHT22;2810;50.134;8.626;2022-12-07T00:59:27;4.20;99.90
5576;DHT22;2810;50.134;8.626;2022-12-07T01:01:53;4.20;99.90
5576;DHT22;2810;50.134;8.626;2022-12-07T01:04:18;4.10;99.90
5576;DHT22;2810;50.134;8.626;2022-12-07T01:06:44;4.10;99.90
5576;DHT22;2810;50.134;8.626;2022-12-07T01:09:09;4.10;99.90
5576;DHT22;2810;50.134;8.626;2022-12-07T01:11:35;4.10;99.90
5576;DHT22;2810;50.134;8.626;2022-12-07T01:14:00;4.10;99.90
5576;DHT22;2810;50.134;8.626;2022-12-07T01:16:27;4.10;99.90
5576;DHT22;2810;50.134;8.626;2022-12-07T01:18:53;4.00;99.90
5576;DHT22;2810;50.134;8.626;2022-12-07T01:21:20;4.10;99.90
5576;DHT22;2810;50.134;8.626;2022-12-07T01:23:46;4.00;99.90
5576;DHT22;2810;50.134;8.626;2022-12-07T01:26:14;4.00;99.90
5576;DHT22;2810;50.134;8.626;2022-12-07T01:28:39;4.00;99.90
5576;DHT22;2810;50.134;8.626;2022-12-07T01:31:09;4.00;99.90
5576;DHT22;2810;50.134;8.626;2022-12-07T01:33:37;4.00;99.90
5576;DHT22;2810;50.134;8.626;2022-12-07T01:38:29;4.50;99.90
5576;DHT22;2810;50.134;8.626;2022-12-07T01:40:55;3.30;99.90
5576;DHT22;2810;50.134;8.626;2022-12-07T01:43:21;4.00;99.90
5576;DHT22;2810;50.134;8.626;2022-12-07T01:45:47;4.00;99.90
5576;DHT22;2810;50.134;8.626;2022-12-07T01:48:13;4.00;99.90
5576;DHT22;2810;50.134;8.626;2022-12-07T01:50:40;4.00;99.90
5576;DHT22;2810;50.134;8.626;2022-12-07T01:53:07;4.60;99.90
5576;DHT22;2810;50.134;8.626;2022-12-07T01:55:33;4.20;99.90
5576;DHT22;2810;50.134;8.626;2022-12-07T01:57:59;4.00;99.90
5576;DHT22;2810;50.134;8.626;2022-12-07T02:00:25;4.00;99.90
5576;DHT22;2810;50.134;8.626;2022-12-07T02:03:02;4.00;99.90
5576;DHT22;2810;50.134;8.626;2022-12-07T02:05:29;3.90;99.90
5576;DHT22;2810;50.134;8.626;2022-12-07T02:07:55;4.30;99.90
5576;DHT22;2810;50.134;8.626;2022-12-07T02:12:51;4.00;99.90
5576;DHT22;2810;50.134;8.626;2022-12-07T02:15:19;4.00;99.90
5576;DHT22;2810;50.134;8.626;2022-12-07T02:17:51;4.00;99.90
5576;DHT22;2810;50.134;8.626;2022-12-07T02:20:30;4.00;99.90
5576;DHT22;2810;50.134;8.626;2022-12-07T02:25:24;3.90;99.90
5576;DHT22;2810;50.134;8.626;2022-12-07T02:30:47;3.90;99.90
5576;DHT22;2810;50.134;8.626;2022-12-07T02:33:23;3.90;99.90
5576;DHT22;2810;50.134;8.626;2022-12-07T02:36:00;3.80;99.90
5576;DHT22;2810;50.134;8.626;2022-12-07T02:40:53;3.80;99.90
5576;DHT22;2810;50.134;8.626;2022-12-07T02:43:20;3.80;99.90
5576;DHT22;2810;50.134;8.626;2022-12-07T02:45:48;3.80;99.90
5576;DHT22;2810;50.134;8.626;2022-12-07T02:48:16;3.80;99.90
5576;DHT22;2810;50.134;8.626;2022-12-07T02:50:49;3.70;99.90
5576;DHT22;2810;50.134;8.626;2022-12-07T02:56:00;3.80;99.90
5576;DHT22;2810;50.134;8.626;2022-12-07T02:58:40;3.80;99.90
5576;DHT22;2810;50.134;8.626;2022-12-07T03:03:44;3.90;99.90
5576;DHT22;2810;50.134;8.626;2022-12-07T03:06:16;3.90;99.90
5576;DHT22;2810;50.134;8.626;2022-12-07T03:09:07;3.90;99.90
5576;DHT22;2810;50.134;8.626;2022-12-07T03:11:46;3.90;99.90
5576;DHT22;2810;50.134;8.626;2022-12-07T03:14:21;3.90;99.90
5576;DHT22;2810;50.134;8.626;2022-12-07T03:19:18;3.90;99.90
5576;DHT22;2810;50.134;8.626;2022-12-07T03:21:51;3.80;99.90
5576;DHT22;2810;50.134;8.626;2022-12-07T03:24:18;3.80;99.90
5576;DHT22;2810;50.134;8.626;2022-12-07T03:26:46;3.80;99.90
5576;DHT22;2810;50.134;8.626;2022-12-07T03:29:17;4.20;99.90
5576;DHT22;2810;50.134;8.626;2022-12-07T03:31:45;3.80;99.90
5576;DHT22;2810;50.134;8.626;2022-12-07T03:34:18;3.80;99.90
5576;DHT22;2810;50.134;8.626;2022-12-07T03:36:47;3.90;99.90
5576;DHT22;2810;50.134;8.626;2022-12-07T03:39:20;4.60;99.90
5576;DHT22;2810;50.134;8.626;2022-12-07T03:41:46;3.90;99.90
5576;DHT22;2810;50.134;8.626;2022-12-07T03:44:12;3.80;99.90
5576;DHT22;2810;50.134;8.626;2022-12-07T03:49:24;3.90;99.90
5576;DHT22;2810;50.134;8.626;2022-12-07T03:52:00;3.90;99.90
5576;DHT22;2810;50.134;8.626;2022-12-07T03:55:29;3.90;99.90
5576;DHT22;2810;50.134;8.626;2022-12-07T03:57:22;3.90;99.90
5576;DHT22;2810;50.134;8.626;2022-12-07T03:59:49;4.20;99.90
5576;DHT22;2810;50.134;8.626;2022-12-07T04:02:14;3.90;99.90
5576;DHT22;2810;50.134;8.626;2022-12-07T04:04:40;3.90;99.90
5576;DHT22;2810;50.134;8.626;2022-12-07T04:07:06;4.20;99.90
5576;DHT22;2810;50.134;8.626;2022-12-07T04:09:32;4.40;99.90
5576;DHT22;2810;50.134;8.626;2022-12-07T04:11:57;3.90;99.90
5576;DHT22;2810;50.134;8.626;2022-12-07T04:14:23;4.00;99.90
5576;DHT22;2810;50.134;8.626;2022-12-07T04:16:49;4.00;99.90
5576;DHT22;2810;50.134;8.626;2022-12-07T04:19:15;4.00;99.90
5576;DHT22;2810;50.134;8.626;2022-12-07T04:21:41;4.00;99.90
5576;DHT22;2810;50.134;8.626;2022-12-07T04:24:07;4.00;99.90
5576;DHT22;2810;50.134;8.626;2022-12-07T04:26:33;4.00;99.90
5576;DHT22;2810;50.134;8.626;2022-12-07T04:28:58;3.60;99.90
5576;DHT22;2810;50.134;8.626;2022-12-07T04:31:24;4.00;99.90
5576;DHT22;2810;50.134;8.626;2022-12-07T04:33:49;4.00;99.90
5576;DHT22;2810;50.134;8.626;2022-12-07T04:36:14;4.00;99.90
5576;DHT22;2810;50.134;8.626;2022-12-07T04:38:40;4.10;99.90
5576;DHT22;2810;50.134;8.626;2022-12-07T04:41:06;4.00;99.90
5576;DHT22;2810;50.134;8.626;2022-12-07T04:43:31;4.10;99.90
5576;DHT22;2810;50.134;8.626;2022-12-07T04:45:57;4.10;99.90
5576;DHT22;2810;50.134;8.626;2022-12-07T04:48:22;4.10;99.90
5576;DHT22;2810;50.134;8.626;2022-12-07T04:50:48;4.10;99.90
5576;DHT22;2810;50.134;8.626;2022-12-07T04:53:15;4.10;99.90
5576;DHT22;2810;50.134;8.626;2022-12-07T04:55:40;4.10;99.90
5576;DHT22;2810;50.134;8.626;2022-12-07T04:58:05;4.10;99.90
5576;DHT22;2810;50.134;8.626;2022-12-07T05:00:31;4.10;99.90
5576;DHT22;2810;50.134;8.626;2022-12-07T05:02:56;4.10;99.90
5576;DHT22;2810;50.134;8.626;2022-12-07T05:05:22;4.10;99.90
5576;DHT22;2810;50.134;8.626;2022-12-07T05:07:47;4.10;99.90
5576;DHT22;2810;50.134;8.626;2022-12-07T05:10:13;4.10;99.90
5576;DHT22;2810;50.134;8.626;2022-12-07T05:12:38;4.10;99.90
5576;DHT22;2810;50.134;8.626;2022-12-07T05:15:04;4.10;99.90
5576;DHT22;2810;50.134;8.626;2022-12-07T05:17:29;4.10;99.90
5576;DHT22;2810;50.134;8.626;2022-12-07T05:19:55;4.10;99.90
5576;DHT22;2810;50.134;8.626;2022-12-07T05:22:20;4.10;99.90
5576;DHT22;2810;50.134;8.626;2022-12-07T05:24:46;4.10;99.90
5576;DHT22;2810;50.134;8.626;2022-12-07T05:27:12;4.20;99.90
5576;DHT22;2810;50.134;8.626;2022-12-07T05:29:37;4.20;99.90
5576;DHT22;2810;50.134;8.626;2022-12-07T05:32:02;4.10;99.90
5576;DHT22;2810;50.134;8.626;2022-12-07T05:34:28;4.20;99.90
5576;DHT22;2810;50.134;8.626;2022-12-07T05:36:53;4.20;99.90
5576;DHT22;2810;50.134;8.626;2022-12-07T05:39:19;4.20;99.90
5576;DHT22;2810;50.134;8.626;2022-12-07T05:41:44;4.20;99.90
5576;DHT22;2810;50.134;8.626;2022-12-07T05:44:28;4.30;99.90
5576;DHT22;2810;50.134;8.626;2022-12-07T05:46:54;4.30;99.90
5576;DHT22;2810;50.134;8.626;2022-12-07T05:49:19;4.30;99.90
5576;DHT22;2810;50.134;8.626;2022-12-07T05:51:45;4.30;99.90
5576;DHT22;2810;50.134;8.626;2022-12-07T05:54:10;4.30;99.90
5576;DHT22;2810;50.134;8.626;2022-12-07T05:56:35;4.30;99.90
5576;DHT22;2810;50.134;8.626;2022-12-07T05:59:01;4.40;99.90
5576;DHT22;2810;50.134;8.626;2022-12-07T06:01:45;4.40;99.90
5576;DHT22;2810;50.134;8.626;2022-12-07T06:04:11;4.40;99.90
5576;DHT22;2810;50.134;8.626;2022-12-07T06:06:36;4.40;99.90
5576;DHT22;2810;50.134;8.626;2022-12-07T06:09:02;4.40;99.90
5576;DHT22;2810;50.134;8.626;2022-12-07T06:11:27;4.40;99.90
5576;DHT22;2810;50.134;8.626;2022-12-07T06:14:11;4.40;99.90
5576;DHT22;2810;50.134;8.626;2022-12-07T06:16:37;4.50;99.90
5576;DHT22;2810;50.134;8.626;2022-12-07T06:19:02;4.50;99.90
5576;DHT22;2810;50.134;8.626;2022-12-07T06:21:28;4.50;99.90
5576;DHT22;2810;50.134;8.626;2022-12-07T06:23:53;4.50;99.90
5576;DHT22;2810;50.134;8.626;2022-12-07T06:26:19;4.40;99.90
5576;DHT22;2810;50.134;8.626;2022-12-07T06:28:44;4.50;99.90
5576;DHT22;2810;50.134;8.626;2022-12-07T06:31:09;4.50;99.90
5576;DHT22;2810;50.134;8.626;2022-12-07T06:33:35;4.50;99.90
5576;DHT22;2810;50.134;8.626;2022-12-07T06:36:00;4.50;99.90
5576;DHT22;2810;50.134;8.626;2022-12-07T06:38:26;4.50;99.90
5576;DHT22;2810;50.134;8.626;2022-12-07T06:40:51;4.50;99.90
5576;DHT22;2810;50.134;8.626;2022-12-07T06:43:17;4.50;99.90
5576;DHT22;2810;50.134;8.626;2022-12-07T06:45:42;4.50;99.90
5576;DHT22;2810;50.134;8.626;2022-12-07T06:48:08;4.50;99.90
5576;DHT22;2810;50.134;8.626;2022-12-07T06:50:33;4.50;99.90
5576;DHT22;2810;50.134;8.626;2022-12-07T06:52:58;4.50;99.90
5576;DHT22;2810;50.134;8.626;2022-12-07T06:55:24;4.50;99.90
5576;DHT22;2810;50.134;8.626;2022-12-07T06:57:49;4.50;99.90
5576;DHT22;2810;50.134;8.626;2022-12-07T07:00:15;4.50;99.90
5576;DHT22;2810;50.134;8.626;2022-12-07T07:02:41;4.50;99.90
5576;DHT22;2810;50.134;8.626;2022-12-07T07:05:06;4.50;99.90
5576;DHT22;2810;50.134;8.626;2022-12-07T07:07:32;4.50;99.90
5576;DHT22;2810;50.134;8.626;2022-12-07T07:09:57;4.50;99.90
5576;DHT22;2810;50.134;8.626;2022-12-07T07:12:23;4.50;99.90
5576;DHT22;2810;50.134;8.626;2022-12-07T07:14:48;4.50;99.90
5576;DHT22;2810;50.134;8.626;2022-12-07T07:17:14;4.50;99.90
5576;DHT22;2810;50.134;8.626;2022-12-07T07:19:39;4.50;99.90
5576;DHT22;2810;50.134;8.626;2022-12-07T07:22:05;4.60;99.90
5576;DHT22;2810;50.134;8.626;2022-12-07T07:24:30;4.50;99.90
5576;DHT22;2810;50.134;8.626;2022-12-07T07:26:55;4.60;99.90
5576;DHT22;2810;50.134;8.626;2022-12-07T07:29:21;4.60;99.90
5576;DHT22;2810;50.134;8.626;2022-12-07T07:31:46;4.60;99.90
5576;DHT22;2810;50.134;8.626;2022-12-07T07:34:12;4.60;99.90
5576;DHT22;2810;50.134;8.626;2022-12-07T07:36:37;4.60;99.90
5576;DHT22;2810;50.134;8.626;2022-12-07T07:39:03;4.60;99.90
5576;DHT22;2810;50.134;8.626;2022-12-07T07:41:28;4.60;99.90
5576;DHT22;2810;50.134;8.626;2022-12-07T07:43:54;4.60;99.90
5576;DHT22;2810;50.134;8.626;2022-12-07T07:46:19;4.70;99.90
5576;DHT22;2810;50.134;8.626;2022-12-07T07:48:45;4.70;99.90
5576;DHT22;2810;50.134;8.626;2022-12-07T07:51:10;4.60;99.90
5576;DHT22;2810;50.134;8.626;2022-12-07T07:53:36;4.60;99.90
5576;DHT22;2810;50.134;8.626;2022-12-07T07:56:01;4.70;99.90
5576;DHT22;2810;50.134;8.626;2022-12-07T07:58:27;4.70;99.90
5576;DHT22;2810;50.134;8.626;2022-12-07T08:00:52;4.80;99.90
5576;DHT22;2810;50.134;8.626;2022-12-07T08:03:18;4.90;99.90
5576;DHT22;2810;50.134;8.626;2022-12-07T08:05:43;4.80;99.90
5576;DHT22;2810;50.134;8.626;2022-12-07T08:08:09;4.90;99.90
5576;DHT22;2810;50.134;8.626;2022-12-07T08:10:34;4.90;99.90
5576;DHT22;2810;50.134;8.626;2022-12-07T08:13:00;4.80;99.90
5576;DHT22;2810;50.134;8.626;2022-12-07T08:15:42;4.80;99.90
5576;DHT22;2810;50.134;8.626;2022-12-07T08:18:08;4.80;99.90
5576;DHT22;2810;50.134;8.626;2022-12-07T08:20:34;4.90;99.90
5576;DHT22;2810;50.134;8.626;2022-12-07T08:23:00;4.80;99.90
5576;DHT22;2810;50.134;8.626;2022-12-07T08:25:25;4.90;99.90
5576;DHT22;2810;50.134;8.626;2022-12-07T08:27:51;4.90;99.90
5576;DHT22;2810;50.134;8.626;2022-12-07T08:30:17;5.10;99.90
5576;DHT22;2810;50.134;8.626;2022-12-07T08:32:46;5.20;99.90
5576;DHT22;2810;50.134;8.626;2022-12-07T08:35:12;5.30;99.90
5576;DHT22;2810;50.134;8.626;2022-12-07T08:37:38;5.50;99.90
5576;DHT22;2810;50.134;8.626;2022-12-07T08:40:04;5.60;99.90
5576;DHT22;2810;50.134;8.626;2022-12-07T08:42:29;5.70;99.90
5576;DHT22;2810;50.134;8.626;2022-12-07T08:45:12;5.90;99.90
5576;DHT22;2810;50.134;8.626;2022-12-07T08:50:22;6.20;99.90
5576;DHT22;2810;50.134;8.626;2022-12-07T08:52:48;6.00;99.90
5576;DHT22;2810;50.134;8.626;2022-12-07T08:55:16;5.90;99.90
5576;DHT22;2810;50.134;8.626;2022-12-07T08:57:41;5.80;99.90
5576;DHT22;2810;50.134;8.626;2022-12-07T09:00:08;5.90;99.90
5576;DHT22;2810;50.134;8.626;2022-12-07T09:02:34;6.50;99.90
5576;DHT22;2810;50.134;8.626;2022-12-07T09:04:59;7.50;99.90
5576;DHT22;2810;50.134;8.626;2022-12-07T09:07:25;8.60;99.90
5576;DHT22;2810;50.134;8.626;2022-12-07T09:09:51;9.50;99.90
5576;DHT22;2810;50.134;8.626;2022-12-07T09:12:16;10.20;99.90
5576;DHT22;2810;50.134;8.626;2022-12-07T09:14:42;11.10;99.90
5576;DHT22;2810;50.134;8.626;2022-12-07T09:17:08;11.60;99.90
5576;DHT22;2810;50.134;8.626;2022-12-07T09:19:34;11.90;99.90
5576;DHT22;2810;50.134;8.626;2022-12-07T09:21:59;12.20;99.90
5576;DHT22;2810;50.134;8.626;2022-12-07T09:24:25;12.70;99.90
5576;DHT22;2810;50.134;8.626;2022-12-07T09:26:50;14.30;99.90
5576;DHT22;2810;50.134;8.626;2022-12-07T09:29:15;14.50;99.90
5576;DHT22;2810;50.134;8.626;2022-12-07T09:31:41;15.20;98.90
5576;DHT22;2810;50.134;8.626;2022-12-07T09:34:06;15.30;97.20
5576;DHT22;2810;50.134;8.626;2022-12-07T09:36:32;14.80;97.30
5576;DHT22;2810;50.134;8.626;2022-12-07T09:38:58;14.70;98.20
5576;DHT22;2810;50.134;8.626;2022-12-07T09:41:23;13.10;99.90
5576;DHT22;2810;50.134;8.626;2022-12-07T09:43:49;11.40;99.90
5576;DHT22;2810;50.134;8.626;2022-12-07T09:46:15;10.20;99.90
5576;DHT22;2810;50.134;8.626;2022-12-07T09:48:43;9.50;99.90
5576;DHT22;2810;50.134;8.626;2022-12-07T09:51:13;9.10;99.90
5576;DHT22;2810;50.134;8.626;2022-12-07T09:53:38;9.40;99.90
5576;DHT22;2810;50.134;8.626;2022-12-07T09:56:04;9.40;99.90
5576;DHT22;2810;50.134;8.626;2022-12-07T09:58:30;9.10;99.90
5576;DHT22;2810;50.134;8.626;2022-12-07T10:01:01;8.90;99.90
5576;DHT22;2810;50.134;8.626;2022-12-07T10:03:30;9.30;99.90
5576;DHT22;2810;50.134;8.626;2022-12-07T10:05:55;10.10;99.90
5576;DHT22;2810;50.134;8.626;2022-12-07T10:08:22;10.00;99.90
5576;DHT22;2810;50.134;8.626;2022-12-07T10:10:50;9.90;99.90
5576;DHT22;2810;50.134;8.626;2022-12-07T10:13:50;9.70;99.90
5576;DHT22;2810;50.134;8.626;2022-12-07T10:18:49;9.50;99.90
5576;DHT22;2810;50.134;8.626;2022-12-07T10:21:15;9.70;99.90
5576;DHT22;2810;50.134;8.626;2022-12-07T10:26:30;9.00;99.90
5576;DHT22;2810;50.134;8.626;2022-12-07T10:28:57;8.70;99.90
5576;DHT22;2810;50.134;8.626;2022-12-07T10:31:23;8.40;99.90
5576;DHT22;2810;50.134;8.626;2022-12-07T10:33:57;8.20;99.90
5576;DHT22;2810;50.134;8.626;2022-12-07T10:39:04;7.70;99.90
5576;DHT22;2810;50.134;8.626;2022-12-07T10:41:35;7.60;99.90
5576;DHT22;2810;50.134;8.626;2022-12-07T10:44:01;7.60;99.90
5576;DHT22;2810;50.134;8.626;2022-12-07T10:54:00;7.70;99.90
5576;DHT22;2810;50.134;8.626;2022-12-07T10:59:23;7.90;99.90
5576;DHT22;2810;50.134;8.626;2022-12-07T11:02:14;8.10;99.90
5576;DHT22;2810;50.134;8.626;2022-12-07T11:12:33;8.20;99.90
5576;DHT22;2810;50.134;8.626;2022-12-07T11:15:04;8.10;99.90
5576;DHT22;2810;50.134;8.626;2022-12-07T11:17:48;8.00;99.90
5576;DHT22;2810;50.134;8.626;2022-12-07T11:22:51;7.80;99.90
5576;DHT22;2810;50.134;8.626;2022-12-07T11:28:03;7.60;99.90
5576;DHT22;2810;50.134;8.626;2022-12-07T11:30:40;7.50;99.90
5576;DHT22;2810;50.134;8.626;2022-12-07T11:38:18;7.50;99.90
5576;DHT22;2810;50.134;8.626;2022-12-07T11:40:46;7.60;99.90
5576;DHT22;2810;50.134;8.626;2022-12-07T11:45:59;7.50;99.90
5576;DHT22;2810;50.134;8.626;2022-12-07T11:48:33;7.60;99.90
5576;DHT22;2810;50.134;8.626;2022-12-07T11:51:01;7.60;99.90
5576;DHT22;2810;50.134;8.626;2022-12-07T11:53:29;7.70;99.90
5576;DHT22;2810;50.134;8.626;2022-12-07T11:55:58;7.90;99.90
5576;DHT22;2810;50.134;8.626;2022-12-07T12:00:55;8.20;99.90
5576;DHT22;2810;50.134;8.626;2022-12-07T12:03:28;8.70;99.90
5576;DHT22;2810;50.134;8.626;2022-12-07T12:05:57;9.10;99.90
5576;DHT22;2810;50.134;8.626;2022-12-07T12:08:25;9.20;99.90
5576;DHT22;2810;50.134;8.626;2022-12-07T12:10:55;9.30;99.90
5576;DHT22;2810;50.134;8.626;2022-12-07T12:13:25;9.00;99.90
5576;DHT22;2810;50.134;8.626;2022-12-07T12:16:01;8.80;99.90
5576;DHT22;2810;50.134;8.626;2022-12-07T12:21:15;8.50;99.90
5576;DHT22;2810;50.134;8.626;2022-12-07T12:23:43;8.50;99.90
5576;DHT22;2810;50.134;8.626;2022-12-07T12:26:17;8.40;99.90
5576;DHT22;2810;50.134;8.626;2022-12-07T12:33:54;9.40;99.90
5576;DHT22;2810;50.134;8.626;2022-12-07T12:36:25;9.70;99.90
5576;DHT22;2810;50.134;8.626;2022-12-07T12:51:46;8.60;99.90
5576;DHT22;2810;50.134;8.626;2022-12-07T12:56:43;8.10;99.90
5576;DHT22;2810;50.134;8.626;2022-12-07T13:01:46;8.00;99.90
5576;DHT22;2810;50.134;8.626;2022-12-07T13:04:23;8.30;99.90
5576;DHT22;2810;50.134;8.626;2022-12-07T13:06:49;7.90;99.90
5576;DHT22;2810;50.134;8.626;2022-12-07T13:09:28;7.90;99.90
5576;DHT22;2810;50.134;8.626;2022-12-07T13:11:59;8.00;99.90
5576;DHT22;2810;50.134;8.626;2022-12-07T13:14:39;8.10;99.90
5576;DHT22;2810;50.134;8.626;2022-12-07T13:17:09;8.00;99.90
5576;DHT22;2810;50.134;8.626;2022-12-07T13:24:54;7.90;99.90
5576;DHT22;2810;50.134;8.626;2022-12-07T13:27:21;7.90;99.90
5576;DHT22;2810;50.134;8.626;2022-12-07T13:29:46;7.80;99.90
5576;DHT22;2810;50.134;8.626;2022-12-07T13:32:25;7.60;99.90
5576;DHT22;2810;50.134;8.626;2022-12-07T13:34:50;7.40;99.90
5576;DHT22;2810;50.134;8.626;2022-12-07T13:37:26;7.30;99.90
5576;DHT22;2810;50.134;8.626;2022-12-07T13:42:38;7.00;99.90
5576;DHT22;2810;50.134;8.626;2022-12-07T13:45:22;7.00;99.90
5576;DHT22;2810;50.134;8.626;2022-12-07T13:48:08;6.90;99.90
5576;DHT22;2810;50.134;8.626;2022-12-07T13:50:36;7.00;99.90
5576;DHT22;2810;50.134;8.626;2022-12-07T13:53:01;7.00;99.90
5576;DHT22;2810;50.134;8.626;2022-12-07T13:55:33;7.00;99.90
5576;DHT22;2810;50.134;8.626;2022-12-07T13:57:58;7.00;99.90
5576;DHT22;2810;50.134;8.626;2022-12-07T14:00:25;6.90;99.90
5576;DHT22;2810;50.134;8.626;2022-12-07T14:05:31;6.80;99.90
5576;DHT22;2810;50.134;8.626;2022-12-07T14:07:58;6.90;99.90
5576;DHT22;2810;50.134;8.626;2022-12-07T14:12:52;6.90;99.90
5576;DHT22;2810;50.134;8.626;2022-12-07T14:15:22;7.50;99.90
5576;DHT22;2810;50.134;8.626;2022-12-07T14:17:49;6.80;99.90
5576;DHT22;2810;50.134;8.626;2022-12-07T14:20:28;7.30;99.90
5576;DHT22;2810;50.134;8.626;2022-12-07T14:22:54;6.70;99.90
5576;DHT22;2810;50.134;8.626;2022-12-07T14:25:24;6.60;99.90
5576;DHT22;2810;50.134;8.626;2022-12-07T14:27:51;6.60;99.90
5576;DHT22;2810;50.134;8.626;2022-12-07T14:30:33;6.60;99.90
5576;DHT22;2810;50.134;8.626;2022-12-07T14:33:00;6.60;99.90
5576;DHT22;2810;50.134;8.626;2022-12-07T14:35:26;6.60;99.90
5576;DHT22;2810;50.134;8.626;2022-12-07T14:37:53;6.60;99.90
5576;DHT22;2810;50.134;8.626;2022-12-07T14:40:20;6.50;99.90
5576;DHT22;2810;50.134;8.626;2022-12-07T14:42:47;6.50;99.90
5576;DHT22;2810;50.134;8.626;2022-12-07T14:45:15;6.90;99.90
5576;DHT22;2810;50.134;8.626;2022-12-07T14:47:40;6.30;99.90
5576;DHT22;2810;50.134;8.626;2022-12-07T14:50:06;6.60;99.90
5576;DHT22;2810;50.134;8.626;2022-12-07T14:52:32;6.10;99.90
5576;DHT22;2810;50.134;8.626;2022-12-07T14:54:58;6.00;99.90
5576;DHT22;2810;50.134;8.626;2022-12-07T14:57:23;6.40;99.90
5576;DHT22;2810;50.134;8.626;2022-12-07T14:59:49;6.00;99.90
5576;DHT22;2810;50.134;8.626;2022-12-07T15:02:15;5.70;99.90
5576;DHT22;2810;50.134;8.626;2022-12-07T15:04:40;5.60;99.90
5576;DHT22;2810;50.134;8.626;2022-12-07T15:07:09;6.00;99.90
5576;DHT22;2810;50.134;8.626;2022-12-07T15:09:35;5.40;99.90
5576;DHT22;2810;50.134;8.626;2022-12-07T15:12:01;5.40;99.90
5576;DHT22;2810;50.134;8.626;2022-12-07T15:14:26;6.20;99.90
5576;DHT22;2810;50.134;8.626;2022-12-07T15:16:52;6.00;99.90
5576;DHT22;2810;50.134;8.626;2022-12-07T15:19:18;5.40;99.90
5576;DHT22;2810;50.134;8.626;2022-12-07T15:21:45;5.40;99.90
5576;DHT22;2810;50.134;8.626;2022-12-07T15:24:10;5.40;99.90
5576;DHT22;2810;50.134;8.626;2022-12-07T15:26:41;5.50;99.90
5576;DHT22;2810;50.134;8.626;2022-12-07T15:29:07;5.40;99.90
5576;DHT22;2810;50.134;8.626;2022-12-07T15:31:34;5.70;99.90
5576;DHT22;2810;50.134;8.626;2022-12-07T15:34:00;5.40;99.90
5576;DHT22;2810;50.134;8.626;2022-12-07T15:36:26;5.70;99.90
5576;DHT22;2810;50.134;8.626;2022-12-07T15:38:52;5.40;99.90
5576;DHT22;2810;50.134;8.626;2022-12-07T15:41:18;5.50;99.90
5576;DHT22;2810;50.134;8.626;2022-12-07T15:43:43;5.50;99.90
5576;DHT22;2810;50.134;8.626;2022-12-07T15:46:38;5.50;99.90
5576;DHT22;2810;50.134;8.626;2022-12-07T15:49:04;5.50;99.90
5576;DHT22;2810;50.134;8.626;2022-12-07T15:51:30;5.50;99.90
5576;DHT22;2810;50.134;8.626;2022-12-07T15:53:56;5.50;99.90
5576;DHT22;2810;50.134;8.626;2022-12-07T15:56:22;5.50;99.90
5576;DHT22;2810;50.134;8.626;2022-12-07T15:58:53;5.70;99.90
5576;DHT22;2810;50.134;8.626;2022-12-07T16:01:19;5.40;99.90
5576;DHT22;2810;50.134;8.626;2022-12-07T16:03:45;5.40;99.90
5576;DHT22;2810;50.134;8.626;2022-12-07T16:06:11;5.40;99.90
5576;DHT22;2810;50.134;8.626;2022-12-07T16:08:36;5.50;99.90
5576;DHT22;2810;50.134;8.626;2022-12-07T16:11:05;5.50;99.90
5576;DHT22;2810;50.134;8.626;2022-12-07T16:13:31;5.50;99.90
5576;DHT22;2810;50.134;8.626;2022-12-07T16:15:58;5.50;99.90
5576;DHT22;2810;50.134;8.626;2022-12-07T16:18:26;5.40;99.90
5576;DHT22;2810;50.134;8.626;2022-12-07T16:20:52;5.40;99.90
5576;DHT22;2810;50.134;8.626;2022-12-07T16:23:18;5.40;99.90
5576;DHT22;2810;50.134;8.626;2022-12-07T16:25:43;5.40;99.90
5576;DHT22;2810;50.134;8.626;2022-12-07T16:28:09;5.40;99.90
5576;DHT22;2810;50.134;8.626;2022-12-07T16:30:34;5.40;99.90
5576;DHT22;2810;50.134;8.626;2022-12-07T16:33:00;5.40;99.90
5576;DHT22;2810;50.134;8.626;2022-12-07T16:35:26;5.40;99.90
5576;DHT22;2810;50.134;8.626;2022-12-07T16:37:51;5.40;99.90
5576;DHT22;2810;50.134;8.626;2022-12-07T16:40:19;5.40;99.90
5576;DHT22;2810;50.134;8.626;2022-12-07T16:42:44;5.40;99.90
5576;DHT22;2810;50.134;8.626;2022-12-07T16:45:10;5.90;99.90
5576;DHT22;2810;50.134;8.626;2022-12-07T16:47:39;5.40;99.90
5576;DHT22;2810;50.134;8.626;2022-12-07T16:50:05;5.40;99.90
5576;DHT22;2810;50.134;8.626;2022-12-07T16:52:31;5.30;99.90
5576;DHT22;2810;50.134;8.626;2022-12-07T16:54:56;5.30;99.90
5576;DHT22;2810;50.134;8.626;2022-12-07T16:57:22;5.40;99.90
5576;DHT22;2810;50.134;8.626;2022-12-07T16:59:47;5.30;99.90
5576;DHT22;2810;50.134;8.626;2022-12-07T17:02:13;5.30;99.90
5576;DHT22;2810;50.134;8.626;2022-12-07T17:04:38;5.30;99.90
5576;DHT22;2810;50.134;8.626;2022-12-07T17:07:08;5.20;99.90
5576;DHT22;2810;50.134;8.626;2022-12-07T17:09:35;5.20;99.90
5576;DHT22;2810;50.134;8.626;2022-12-07T17:12:02;5.20;99.90
5576;DHT22;2810;50.134;8.626;2022-12-07T17:14:28;4.90;99.90
5576;DHT22;2810;50.134;8.626;2022-12-07T17:17:18;5.20;99.90
5576;DHT22;2810;50.134;8.626;2022-12-07T17:19:44;5.10;99.90
5576;DHT22;2810;50.134;8.626;2022-12-07T17:22:09;5.40;99.90
5576;DHT22;2810;50.134;8.626;2022-12-07T17:24:37;5.10;99.90
5576;DHT22;2810;50.134;8.626;2022-12-07T17:27:03;5.10;99.90
5576;DHT22;2810;50.134;8.626;2022-12-07T17:29:29;5.20;99.90
5576;DHT22;2810;50.134;8.626;2022-12-07T17:31:55;5.20;99.90
5576;DHT22;2810;50.134;8.626;2022-12-07T17:34:20;5.60;99.90
5576;DHT22;2810;50.134;8.626;2022-12-07T17:36:46;5.20;99.90
5576;DHT22;2810;50.134;8.626;2022-12-07T17:39:14;5.10;99.90
5576;DHT22;2810;50.134;8.626;2022-12-07T17:41:40;5.90;99.90
5576;DHT22;2810;50.134;8.626;2022-12-07T17:44:24;5.20;99.90
5576;DHT22;2810;50.134;8.626;2022-12-07T17:46:51;4.90;99.90
5576;DHT22;2810;50.134;8.626;2022-12-07T17:49:30;4.90;99.90
5576;DHT22;2810;50.134;8.626;2022-12-07T17:51:56;4.80;99.90
5576;DHT22;2810;50.134;8.626;2022-12-07T17:54:41;4.80;99.90
5576;DHT22;2810;50.134;8.626;2022-12-07T17:57:07;4.80;99.90
5576;DHT22;2810;50.134;8.626;2022-12-07T17:59:33;4.70;99.90
5576;DHT22;2810;50.134;8.626;2022-12-07T18:02:03;4.70;99.90
5576;DHT22;2810;50.134;8.626;2022-12-07T18:04:28;4.60;99.90
5576;DHT22;2810;50.134;8.626;2022-12-07T18:06:54;4.60;99.90